sensor_id;sensor_type;location;lat;lon;timestamp;P1;durP1;ratioP1;P2;durP2;ratioP2
10535;SDS011;5316;49.538;8.352;2023-05-10T00:00:17;0.30;;;0.30;;
10535;SDS011;5316;49.538;8.352;2023-05-10T00:02:45;1.90;;;0.50;;
10535;SDS011;5316;49.538;8.352;2023-05-10T00:05:12;0.87;;;0.40;;
10535;SDS011;5316;49.538;8.352;2023-05-10T00:07:38;1.07;;;0.50;;
10535;SDS011;5316;49.538;8.352;2023-05-10T00:10:05;0.50;;;0.50;;
10535;SDS011;5316;49.538;8.352;2023-05-10T00:12:32;0.57;;;0.40;;
10535;SDS011;5316;49.538;8.352;2023-05-10T00:15:00;0.87;;;0.50;;
10535;SDS011;5316;49.538;8.352;2023-05-10T00:17:27;1.33;;;0.50;;
10535;SDS011;5316;49.538;8.352;2023-05-10T00:19:54;0.40;;;0.40;;
10535;SDS011;5316;49.538;8.352;2023-05-10T00:22:21;0.60;;;0.60;;
10535;SDS011;5316;49.538;8.352;2023-05-10T00:24:47;0.50;;;0.50;;
10535;SDS011;5316;49.538;8.352;2023-05-10T00:27:14;0.90;;;0.70;;
10535;SDS011;5316;49.538;8.352;2023-05-10T00:29:41;0.63;;;0.60;;
10535;SDS011;5316;49.538;8.352;2023-05-10T00:32:09;0.77;;;0.67;;
10535;SDS011;5316;49.538;8.352;2023-05-10T00:34:35;0.60;;;0.60;;
10535;SDS011;5316;49.538;8.352;2023-05-10T00:37:02;0.60;;;0.60;;
10535;SDS011;5316;49.538;8.352;2023-05-10T00:39:29;0.70;;;0.70;;
10535;SDS011;5316;49.538;8.352;2023-05-10T00:41:55;1.60;;;0.70;;
10535;SDS011;5316;49.538;8.352;2023-05-10T00:44:22;0.60;;;0.60;;
10535;SDS011;5316;49.538;8.352;2023-05-10T00:46:49;0.70;;;0.70;;
10535;SDS011;5316;49.538;8.352;2023-05-10T00:49:17;0.83;;;0.83;;
10535;SDS011;5316;49.538;8.352;2023-05-10T00:51:44;1.07;;;0.70;;
10535;SDS011;5316;49.538;8.352;2023-05-10T00:54:10;0.60;;;0.60;;
10535;SDS011;5316;49.538;8.352;2023-05-10T00:56:38;0.60;;;0.60;;
10535;SDS011;5316;49.538;8.352;2023-05-10T00:59:05;1.03;;;0.50;;
10535;SDS011;5316;49.538;8.352;2023-05-10T01:01:32;0.80;;;0.60;;
10535;SDS011;5316;49.538;8.352;2023-05-10T01:03:58;2.33;;;0.53;;
10535;SDS011;5316;49.538;8.352;2023-05-10T01:06:27;1.43;;;0.70;;
10535;SDS011;5316;49.538;8.352;2023-05-10T01:08:54;0.77;;;0.60;;
10535;SDS011;5316;49.538;8.352;2023-05-10T01:11:21;1.07;;;0.77;;
10535;SDS011;5316;49.538;8.352;2023-05-10T01:13:50;0.60;;;0.60;;
10535;SDS011;5316;49.538;8.352;2023-05-10T01:16:21;0.53;;;0.53;;
10535;SDS011;5316;49.538;8.352;2023-05-10T01:18:48;1.50;;;0.70;;
10535;SDS011;5316;49.538;8.352;2023-05-10T01:21:18;1.00;;;0.80;;
10535;SDS011;5316;49.538;8.352;2023-05-10T01:24:00;1.07;;;0.50;;
10535;SDS011;5316;49.538;8.352;2023-05-10T01:26:49;0.53;;;0.53;;
10535;SDS011;5316;49.538;8.352;2023-05-10T01:29:44;1.77;;;0.60;;
10535;SDS011;5316;49.538;8.352;2023-05-10T01:32:36;0.70;;;0.70;;
10535;SDS011;5316;49.538;8.352;2023-05-10T01:35:06;0.70;;;0.70;;
10535;SDS011;5316;49.538;8.352;2023-05-10T01:37:42;0.50;;;0.50;;
10535;SDS011;5316;49.538;8.352;2023-05-10T01:40:14;1.03;;;0.60;;
10535;SDS011;5316;49.538;8.352;2023-05-10T01:42:48;2.13;;;0.60;;
10535;SDS011;5316;49.538;8.352;2023-05-10T01:45:18;1.23;;;0.63;;
10535;SDS011;5316;49.538;8.352;2023-05-10T01:47:53;0.60;;;0.60;;
10535;SDS011;5316;49.538;8.352;2023-05-10T01:50:29;0.60;;;0.60;;
10535;SDS011;5316;49.538;8.352;2023-05-10T01:52:57;0.70;;;0.70;;
10535;SDS011;5316;49.538;8.352;2023-05-10T01:55:26;1.10;;;0.60;;
10535;SDS011;5316;49.538;8.352;2023-05-10T01:57:57;0.50;;;0.50;;
10535;SDS011;5316;49.538;8.352;2023-05-10T02:00:28;0.60;;;0.60;;
10535;SDS011;5316;49.538;8.352;2023-05-10T02:02:58;0.67;;;0.67;;
10535;SDS011;5316;49.538;8.352;2023-05-10T02:05:27;2.83;;;0.67;;
10535;SDS011;5316;49.538;8.352;2023-05-10T02:07:55;0.57;;;0.57;;
10535;SDS011;5316;49.538;8.352;2023-05-10T02:10:24;2.77;;;0.60;;
10535;SDS011;5316;49.538;8.352;2023-05-10T02:12:51;0.60;;;0.60;;
10535;SDS011;5316;49.538;8.352;2023-05-10T02:15:21;1.47;;;0.70;;
10535;SDS011;5316;49.538;8.352;2023-05-10T02:17:49;0.60;;;0.60;;
10535;SDS011;5316;49.538;8.352;2023-05-10T02:20:18;0.70;;;0.70;;
10535;SDS011;5316;49.538;8.352;2023-05-10T02:22:46;1.03;;;0.50;;
10535;SDS011;5316;49.538;8.352;2023-05-10T02:25:16;1.40;;;0.70;;
10535;SDS011;5316;49.538;8.352;2023-05-10T02:27:45;0.60;;;0.60;;
10535;SDS011;5316;49.538;8.352;2023-05-10T02:30:13;0.77;;;0.70;;
10535;SDS011;5316;49.538;8.352;2023-05-10T02:32:41;0.80;;;0.60;;
10535;SDS011;5316;49.538;8.352;2023-05-10T02:35:10;0.70;;;0.70;;
10535;SDS011;5316;49.538;8.352;2023-05-10T02:37:39;0.70;;;0.70;;
10535;SDS011;5316;49.538;8.352;2023-05-10T02:40:07;0.70;;;0.70;;
10535;SDS011;5316;49.538;8.352;2023-05-10T02:42:35;1.10;;;0.70;;
10535;SDS011;5316;49.538;8.352;2023-05-10T02:45:05;1.13;;;0.97;;
10535;SDS011;5316;49.538;8.352;2023-05-10T02:47:37;1.00;;;0.90;;
10535;SDS011;5316;49.538;8.352;2023-05-10T02:50:04;1.03;;;1.03;;
10535;SDS011;5316;49.538;8.352;2023-05-10T02:52:36;0.80;;;0.80;;
10535;SDS011;5316;49.538;8.352;2023-05-10T02:55:09;0.90;;;0.90;;
10535;SDS011;5316;49.538;8.352;2023-05-10T02:57:40;1.63;;;1.30;;
10535;SDS011;5316;49.538;8.352;2023-05-10T03:00:09;0.87;;;0.87;;
10535;SDS011;5316;49.538;8.352;2023-05-10T03:02:36;1.23;;;0.90;;
10535;SDS011;5316;49.538;8.352;2023-05-10T03:05:03;0.97;;;0.90;;
10535;SDS011;5316;49.538;8.352;2023-05-10T03:07:30;0.70;;;0.70;;
10535;SDS011;5316;49.538;8.352;2023-05-10T03:09:58;0.90;;;0.90;;
10535;SDS011;5316;49.538;8.352;2023-05-10T03:12:27;1.17;;;1.13;;
10535;SDS011;5316;49.538;8.352;2023-05-10T03:15:05;1.00;;;1.00;;
10535;SDS011;5316;49.538;8.352;2023-05-10T03:17:40;1.93;;;0.93;;
10535;SDS011;5316;49.538;8.352;2023-05-10T03:20:12;1.43;;;1.13;;
10535;SDS011;5316;49.538;8.352;2023-05-10T03:22:46;1.00;;;1.00;;
10535;SDS011;5316;49.538;8.352;2023-05-10T03:25:17;1.50;;;1.10;;
10535;SDS011;5316;49.538;8.352;2023-05-10T03:27:46;1.27;;;1.00;;
10535;SDS011;5316;49.538;8.352;2023-05-10T03:30:13;1.10;;;1.10;;
10535;SDS011;5316;49.538;8.352;2023-05-10T03:32:41;1.37;;;1.00;;
10535;SDS011;5316;49.538;8.352;2023-05-10T03:35:08;2.23;;;1.13;;
10535;SDS011;5316;49.538;8.352;2023-05-10T03:37:35;1.10;;;1.10;;
10535;SDS011;5316;49.538;8.352;2023-05-10T03:40:02;3.03;;;1.20;;
10535;SDS011;5316;49.538;8.352;2023-05-10T03:42:30;1.60;;;1.50;;
10535;SDS011;5316;49.538;8.352;2023-05-10T03:44:57;2.00;;;1.80;;
10535;SDS011;5316;49.538;8.352;2023-05-10T03:47:24;3.23;;;1.13;;
10535;SDS011;5316;49.538;8.352;2023-05-10T03:49:50;1.20;;;1.10;;
10535;SDS011;5316;49.538;8.352;2023-05-10T03:52:17;1.43;;;1.20;;
10535;SDS011;5316;49.538;8.352;2023-05-10T03:54:44;1.10;;;1.10;;
10535;SDS011;5316;49.538;8.352;2023-05-10T03:57:11;5.10;;;1.33;;
10535;SDS011;5316;49.538;8.352;2023-05-10T03:59:39;1.20;;;1.03;;
10535;SDS011;5316;49.538;8.352;2023-05-10T04:02:05;2.23;;;1.10;;
10535;SDS011;5316;49.538;8.352;2023-05-10T04:04:32;4.37;;;1.57;;
10535;SDS011;5316;49.538;8.352;2023-05-10T04:06:59;1.47;;;1.37;;
10535;SDS011;5316;49.538;8.352;2023-05-10T04:09:25;3.27;;;2.17;;
10535;SDS011;5316;49.538;8.352;2023-05-10T04:11:52;2.90;;;1.30;;
10535;SDS011;5316;49.538;8.352;2023-05-10T04:14:18;1.53;;;1.43;;
10535;SDS011;5316;49.538;8.352;2023-05-10T04:16:46;6.00;;;1.90;;
10535;SDS011;5316;49.538;8.352;2023-05-10T04:19:13;2.30;;;1.20;;
10535;SDS011;5316;49.538;8.352;2023-05-10T04:21:40;1.27;;;1.17;;
10535;SDS011;5316;49.538;8.352;2023-05-10T04:24:06;2.27;;;1.23;;
10535;SDS011;5316;49.538;8.352;2023-05-10T04:26:33;2.20;;;1.23;;
10535;SDS011;5316;49.538;8.352;2023-05-10T04:29:00;1.60;;;1.50;;
10535;SDS011;5316;49.538;8.352;2023-05-10T04:31:27;1.80;;;1.50;;
10535;SDS011;5316;49.538;8.352;2023-05-10T04:33:55;1.63;;;1.50;;
10535;SDS011;5316;49.538;8.352;2023-05-10T04:36:22;1.60;;;1.40;;
10535;SDS011;5316;49.538;8.352;2023-05-10T04:38:48;2.20;;;2.03;;
10535;SDS011;5316;49.538;8.352;2023-05-10T04:41:15;2.37;;;1.70;;
10535;SDS011;5316;49.538;8.352;2023-05-10T04:44:08;2.00;;;1.73;;
10535;SDS011;5316;49.538;8.352;2023-05-10T04:50:43;3.07;;;1.87;;
10535;SDS011;5316;49.538;8.352;2023-05-10T04:53:10;2.37;;;2.17;;
10535;SDS011;5316;49.538;8.352;2023-05-10T04:55:37;2.13;;;1.93;;
10535;SDS011;5316;49.538;8.352;2023-05-10T04:58:04;3.63;;;2.27;;
10535;SDS011;5316;49.538;8.352;2023-05-10T05:00:31;3.47;;;2.27;;
10535;SDS011;5316;49.538;8.352;2023-05-10T05:02:58;5.47;;;2.10;;
10535;SDS011;5316;49.538;8.352;2023-05-10T05:05:25;2.23;;;2.13;;
10535;SDS011;5316;49.538;8.352;2023-05-10T05:07:54;3.10;;;2.50;;
10535;SDS011;5316;49.538;8.352;2023-05-10T05:10:21;5.97;;;2.70;;
10535;SDS011;5316;49.538;8.352;2023-05-10T05:12:48;2.70;;;2.50;;
10535;SDS011;5316;49.538;8.352;2023-05-10T05:15:15;2.97;;;2.77;;
10535;SDS011;5316;49.538;8.352;2023-05-10T05:17:42;3.17;;;2.60;;
10535;SDS011;5316;49.538;8.352;2023-05-10T05:20:10;4.33;;;2.67;;
10535;SDS011;5316;49.538;8.352;2023-05-10T05:22:38;2.90;;;2.70;;
10535;SDS011;5316;49.538;8.352;2023-05-10T05:25:07;4.87;;;2.87;;
10535;SDS011;5316;49.538;8.352;2023-05-10T05:27:34;14.07;;;3.57;;
10535;SDS011;5316;49.538;8.352;2023-05-10T05:30:01;4.10;;;3.40;;
10535;SDS011;5316;49.538;8.352;2023-05-10T05:32:29;5.10;;;3.33;;
10535;SDS011;5316;49.538;8.352;2023-05-10T05:34:56;4.67;;;4.27;;
10535;SDS011;5316;49.538;8.352;2023-05-10T05:37:22;5.40;;;4.93;;
10535;SDS011;5316;49.538;8.352;2023-05-10T05:39:49;4.13;;;3.83;;
10535;SDS011;5316;49.538;8.352;2023-05-10T05:42:18;3.80;;;3.50;;
10535;SDS011;5316;49.538;8.352;2023-05-10T05:44:44;3.97;;;2.73;;
10535;SDS011;5316;49.538;8.352;2023-05-10T05:47:11;3.07;;;2.80;;
10535;SDS011;5316;49.538;8.352;2023-05-10T05:49:38;2.73;;;2.23;;
10535;SDS011;5316;49.538;8.352;2023-05-10T05:52:05;2.63;;;2.43;;
10535;SDS011;5316;49.538;8.352;2023-05-10T05:54:32;3.03;;;2.80;;
10535;SDS011;5316;49.538;8.352;2023-05-10T05:56:59;2.77;;;2.57;;
10535;SDS011;5316;49.538;8.352;2023-05-10T05:59:28;4.17;;;2.40;;
10535;SDS011;5316;49.538;8.352;2023-05-10T06:01:55;4.43;;;4.10;;
10535;SDS011;5316;49.538;8.352;2023-05-10T06:04:21;4.23;;;3.80;;
10535;SDS011;5316;49.538;8.352;2023-05-10T06:06:48;2.80;;;2.70;;
10535;SDS011;5316;49.538;8.352;2023-05-10T06:09:15;2.87;;;2.00;;
10535;SDS011;5316;49.538;8.352;2023-05-10T06:11:42;2.00;;;1.90;;
10535;SDS011;5316;49.538;8.352;2023-05-10T06:14:09;2.27;;;2.03;;
10535;SDS011;5316;49.538;8.352;2023-05-10T06:16:38;2.10;;;1.90;;
10535;SDS011;5316;49.538;8.352;2023-05-10T06:19:04;2.50;;;2.30;;
10535;SDS011;5316;49.538;8.352;2023-05-10T06:21:31;2.13;;;1.93;;
10535;SDS011;5316;49.538;8.352;2023-05-10T06:23:58;2.00;;;1.90;;
10535;SDS011;5316;49.538;8.352;2023-05-10T06:26:27;4.43;;;1.80;;
10535;SDS011;5316;49.538;8.352;2023-05-10T06:28:53;1.80;;;1.70;;
10535;SDS011;5316;49.538;8.352;2023-05-10T06:31:20;2.37;;;1.60;;
10535;SDS011;5316;49.538;8.352;2023-05-10T06:33:48;3.53;;;1.90;;
10535;SDS011;5316;49.538;8.352;2023-05-10T06:36:15;2.03;;;1.93;;
10535;SDS011;5316;49.538;8.352;2023-05-10T06:38:42;1.87;;;1.40;;
10535;SDS011;5316;49.538;8.352;2023-05-10T06:41:09;1.63;;;1.60;;
10535;SDS011;5316;49.538;8.352;2023-05-10T06:43:36;2.27;;;1.30;;
10535;SDS011;5316;49.538;8.352;2023-05-10T06:46:05;1.33;;;1.23;;
10535;SDS011;5316;49.538;8.352;2023-05-10T06:48:32;1.87;;;1.07;;
10535;SDS011;5316;49.538;8.352;2023-05-10T06:51:01;1.73;;;1.03;;
10535;SDS011;5316;49.538;8.352;2023-05-10T06:53:27;0.93;;;0.90;;
10535;SDS011;5316;49.538;8.352;2023-05-10T06:55:54;1.30;;;0.90;;
10535;SDS011;5316;49.538;8.352;2023-05-10T06:58:30;2.37;;;0.90;;
10535;SDS011;5316;49.538;8.352;2023-05-10T07:01:01;1.57;;;0.73;;
10535;SDS011;5316;49.538;8.352;2023-05-10T07:03:35;1.40;;;0.80;;
10535;SDS011;5316;49.538;8.352;2023-05-10T07:06:03;2.03;;;1.20;;
10535;SDS011;5316;49.538;8.352;2023-05-10T07:08:32;0.80;;;0.80;;
10535;SDS011;5316;49.538;8.352;2023-05-10T07:10:59;1.20;;;1.00;;
10535;SDS011;5316;49.538;8.352;2023-05-10T07:13:28;1.07;;;0.97;;
10535;SDS011;5316;49.538;8.352;2023-05-10T07:15:55;1.40;;;0.70;;
10535;SDS011;5316;49.538;8.352;2023-05-10T07:18:22;0.77;;;0.60;;
10535;SDS011;5316;49.538;8.352;2023-05-10T07:20:49;1.40;;;0.60;;
10535;SDS011;5316;49.538;8.352;2023-05-10T07:23:17;0.60;;;0.60;;
10535;SDS011;5316;49.538;8.352;2023-05-10T07:25:45;0.60;;;0.60;;
10535;SDS011;5316;49.538;8.352;2023-05-10T07:28:12;1.87;;;0.70;;
10535;SDS011;5316;49.538;8.352;2023-05-10T07:30:39;1.30;;;0.60;;
10535;SDS011;5316;49.538;8.352;2023-05-10T07:33:07;1.07;;;0.80;;
10535;SDS011;5316;49.538;8.352;2023-05-10T07:35:34;1.60;;;0.90;;
10535;SDS011;5316;49.538;8.352;2023-05-10T07:38:01;0.63;;;0.63;;
10535;SDS011;5316;49.538;8.352;2023-05-10T07:40:30;0.83;;;0.73;;
10535;SDS011;5316;49.538;8.352;2023-05-10T07:42:57;1.17;;;0.70;;
10535;SDS011;5316;49.538;8.352;2023-05-10T07:45:24;1.27;;;0.70;;
10535;SDS011;5316;49.538;8.352;2023-05-10T07:47:51;0.53;;;0.53;;
10535;SDS011;5316;49.538;8.352;2023-05-10T07:50:18;1.70;;;0.70;;
10535;SDS011;5316;49.538;8.352;2023-05-10T07:52:46;4.10;;;0.70;;
10535;SDS011;5316;49.538;8.352;2023-05-10T07:55:13;1.23;;;0.63;;
10535;SDS011;5316;49.538;8.352;2023-05-10T07:57:42;1.70;;;0.67;;
10535;SDS011;5316;49.538;8.352;2023-05-10T08:00:09;1.13;;;0.70;;
10535;SDS011;5316;49.538;8.352;2023-05-10T08:02:39;0.70;;;0.70;;
10535;SDS011;5316;49.538;8.352;2023-05-10T08:05:06;1.90;;;0.80;;
10535;SDS011;5316;49.538;8.352;2023-05-10T08:07:33;1.23;;;0.60;;
10535;SDS011;5316;49.538;8.352;2023-05-10T08:10:00;1.10;;;0.53;;
10535;SDS011;5316;49.538;8.352;2023-05-10T08:12:27;0.50;;;0.50;;
10535;SDS011;5316;49.538;8.352;2023-05-10T08:14:56;0.73;;;0.60;;
10535;SDS011;5316;49.538;8.352;2023-05-10T08:17:23;2.00;;;0.80;;
10535;SDS011;5316;49.538;8.352;2023-05-10T08:19:50;0.93;;;0.60;;
10535;SDS011;5316;49.538;8.352;2023-05-10T08:22:17;2.13;;;0.70;;
10535;SDS011;5316;49.538;8.352;2023-05-10T08:24:44;0.70;;;0.70;;
10535;SDS011;5316;49.538;8.352;2023-05-10T08:27:11;1.43;;;1.07;;
10535;SDS011;5316;49.538;8.352;2023-05-10T08:29:38;2.67;;;1.00;;
10535;SDS011;5316;49.538;8.352;2023-05-10T08:32:06;3.67;;;1.00;;
10535;SDS011;5316;49.538;8.352;2023-05-10T08:34:32;1.23;;;0.80;;
10535;SDS011;5316;49.538;8.352;2023-05-10T08:36:59;3.10;;;1.00;;
10535;SDS011;5316;49.538;8.352;2023-05-10T08:39:26;1.27;;;0.70;;
10535;SDS011;5316;49.538;8.352;2023-05-10T08:41:53;0.60;;;0.60;;
10535;SDS011;5316;49.538;8.352;2023-05-10T08:44:24;2.20;;;0.50;;
10535;SDS011;5316;49.538;8.352;2023-05-10T08:46:51;0.83;;;0.60;;
10535;SDS011;5316;49.538;8.352;2023-05-10T08:49:22;1.00;;;0.60;;
10535;SDS011;5316;49.538;8.352;2023-05-10T08:51:51;0.60;;;0.60;;
10535;SDS011;5316;49.538;8.352;2023-05-10T08:54:21;0.67;;;0.60;;
10535;SDS011;5316;49.538;8.352;2023-05-10T08:56:48;1.73;;;0.70;;
10535;SDS011;5316;49.538;8.352;2023-05-10T08:59:15;1.57;;;0.70;;
10535;SDS011;5316;49.538;8.352;2023-05-10T09:01:43;1.93;;;0.83;;
10535;SDS011;5316;49.538;8.352;2023-05-10T09:04:13;1.30;;;0.90;;
10535;SDS011;5316;49.538;8.352;2023-05-10T09:06:41;2.30;;;0.73;;
10535;SDS011;5316;49.538;8.352;2023-05-10T09:09:08;1.60;;;0.70;;
10535;SDS011;5316;49.538;8.352;2023-05-10T09:11:35;1.50;;;0.80;;
10535;SDS011;5316;49.538;8.352;2023-05-10T09:14:01;0.80;;;0.80;;
10535;SDS011;5316;49.538;8.352;2023-05-10T09:16:28;1.70;;;0.70;;
10535;SDS011;5316;49.538;8.352;2023-05-10T09:18:55;0.80;;;0.80;;
10535;SDS011;5316;49.538;8.352;2023-05-10T09:21:22;2.43;;;1.10;;
10535;SDS011;5316;49.538;8.352;2023-05-10T09:23:50;1.87;;;1.30;;
10535;SDS011;5316;49.538;8.352;2023-05-10T09:26:21;1.20;;;1.10;;
10535;SDS011;5316;49.538;8.352;2023-05-10T09:28:52;2.40;;;1.13;;
10535;SDS011;5316;49.538;8.352;2023-05-10T09:31:19;2.33;;;1.17;;
10535;SDS011;5316;49.538;8.352;2023-05-10T09:33:46;5.13;;;1.10;;
10535;SDS011;5316;49.538;8.352;2023-05-10T09:36:13;1.33;;;0.80;;
10535;SDS011;5316;49.538;8.352;2023-05-10T09:38:47;2.83;;;1.60;;
10535;SDS011;5316;49.538;8.352;2023-05-10T09:41:19;2.47;;;1.03;;
10535;SDS011;5316;49.538;8.352;2023-05-10T09:43:48;1.20;;;1.10;;
10535;SDS011;5316;49.538;8.352;2023-05-10T09:46:15;2.10;;;0.90;;
10535;SDS011;5316;49.538;8.352;2023-05-10T09:48:43;0.53;;;0.53;;
10535;SDS011;5316;49.538;8.352;2023-05-10T09:51:16;3.13;;;0.73;;
10535;SDS011;5316;49.538;8.352;2023-05-10T09:53:45;1.80;;;0.90;;
10535;SDS011;5316;49.538;8.352;2023-05-10T09:56:11;1.17;;;0.60;;
10535;SDS011;5316;49.538;8.352;2023-05-10T09:58:40;2.13;;;0.83;;
10535;SDS011;5316;49.538;8.352;2023-05-10T10:01:10;0.70;;;0.70;;
10535;SDS011;5316;49.538;8.352;2023-05-10T10:03:41;0.90;;;0.90;;
10535;SDS011;5316;49.538;8.352;2023-05-10T10:06:08;1.50;;;0.80;;
10535;SDS011;5316;49.538;8.352;2023-05-10T10:08:35;0.97;;;0.97;;
10535;SDS011;5316;49.538;8.352;2023-05-10T10:11:02;0.60;;;0.60;;
10535;SDS011;5316;49.538;8.352;2023-05-10T10:13:29;2.37;;;0.87;;
10535;SDS011;5316;49.538;8.352;2023-05-10T10:15:58;1.00;;;0.80;;
10535;SDS011;5316;49.538;8.352;2023-05-10T10:18:25;0.73;;;0.50;;
10535;SDS011;5316;49.538;8.352;2023-05-10T10:20:53;1.20;;;0.50;;
10535;SDS011;5316;49.538;8.352;2023-05-10T10:23:20;1.63;;;0.60;;
10535;SDS011;5316;49.538;8.352;2023-05-10T10:25:48;0.70;;;0.60;;
10535;SDS011;5316;49.538;8.352;2023-05-10T10:28:20;0.60;;;0.60;;
10535;SDS011;5316;49.538;8.352;2023-05-10T10:30:52;1.03;;;0.60;;
10535;SDS011;5316;49.538;8.352;2023-05-10T10:33:39;0.53;;;0.53;;
10535;SDS011;5316;49.538;8.352;2023-05-10T10:36:17;1.00;;;0.60;;
10535;SDS011;5316;49.538;8.352;2023-05-10T10:38:54;1.10;;;0.60;;
10535;SDS011;5316;49.538;8.352;2023-05-10T10:41:28;0.50;;;0.50;;
10535;SDS011;5316;49.538;8.352;2023-05-10T10:46:58;0.70;;;0.57;;
10535;SDS011;5316;49.538;8.352;2023-05-10T10:49:30;0.53;;;0.50;;
10535;SDS011;5316;49.538;8.352;2023-05-10T10:52:13;0.47;;;0.47;;
10535;SDS011;5316;49.538;8.352;2023-05-10T10:54:40;0.47;;;0.47;;
10535;SDS011;5316;49.538;8.352;2023-05-10T10:57:10;1.93;;;0.50;;
10535;SDS011;5316;49.538;8.352;2023-05-10T10:59:41;1.23;;;0.50;;
10535;SDS011;5316;49.538;8.352;2023-05-10T11:02:08;2.73;;;0.53;;
10535;SDS011;5316;49.538;8.352;2023-05-10T11:04:42;0.40;;;0.40;;
10535;SDS011;5316;49.538;8.352;2023-05-10T11:07:17;2.10;;;0.60;;
10535;SDS011;5316;49.538;8.352;2023-05-10T11:09:45;1.90;;;0.90;;
10535;SDS011;5316;49.538;8.352;2023-05-10T11:12:21;0.50;;;0.40;;
10535;SDS011;5316;49.538;8.352;2023-05-10T11:14:49;0.50;;;0.50;;
10535;SDS011;5316;49.538;8.352;2023-05-10T11:20:40;2.07;;;0.60;;
10535;SDS011;5316;49.538;8.352;2023-05-10T11:23:11;1.40;;;0.40;;
10535;SDS011;5316;49.538;8.352;2023-05-10T11:25:41;1.23;;;0.60;;
10535;SDS011;5316;49.538;8.352;2023-05-10T11:28:09;0.73;;;0.50;;
10535;SDS011;5316;49.538;8.352;2023-05-10T11:30:37;0.63;;;0.60;;
10535;SDS011;5316;49.538;8.352;2023-05-10T11:33:05;0.90;;;0.70;;
10535;SDS011;5316;49.538;8.352;2023-05-10T11:35:36;1.23;;;0.50;;
10535;SDS011;5316;49.538;8.352;2023-05-10T11:38:06;1.40;;;0.50;;
10535;SDS011;5316;49.538;8.352;2023-05-10T11:40:33;1.20;;;0.70;;
10535;SDS011;5316;49.538;8.352;2023-05-10T11:43:00;1.27;;;0.53;;
10535;SDS011;5316;49.538;8.352;2023-05-10T11:45:27;1.00;;;0.50;;
10535;SDS011;5316;49.538;8.352;2023-05-10T11:47:54;0.50;;;0.50;;
10535;SDS011;5316;49.538;8.352;2023-05-10T11:50:21;1.53;;;0.60;;
10535;SDS011;5316;49.538;8.352;2023-05-10T11:52:50;0.97;;;0.50;;
10535;SDS011;5316;49.538;8.352;2023-05-10T11:55:18;0.97;;;0.50;;
10535;SDS011;5316;49.538;8.352;2023-05-10T11:57:45;0.90;;;0.50;;
10535;SDS011;5316;49.538;8.352;2023-05-10T12:00:12;1.67;;;0.50;;
10535;SDS011;5316;49.538;8.352;2023-05-10T12:02:40;2.73;;;0.60;;
10535;SDS011;5316;49.538;8.352;2023-05-10T12:05:07;0.97;;;0.40;;
10535;SDS011;5316;49.538;8.352;2023-05-10T12:07:35;1.27;;;0.50;;
10535;SDS011;5316;49.538;8.352;2023-05-10T12:10:02;1.73;;;0.50;;
10535;SDS011;5316;49.538;8.352;2023-05-10T12:12:41;0.97;;;0.70;;
10535;SDS011;5316;49.538;8.352;2023-05-10T12:15:12;1.23;;;0.57;;
10535;SDS011;5316;49.538;8.352;2023-05-10T12:17:43;1.03;;;0.40;;
10535;SDS011;5316;49.538;8.352;2023-05-10T12:20:13;1.10;;;0.50;;
10535;SDS011;5316;49.538;8.352;2023-05-10T12:22:45;1.33;;;0.60;;
10535;SDS011;5316;49.538;8.352;2023-05-10T12:25:13;2.93;;;0.60;;
10535;SDS011;5316;49.538;8.352;2023-05-10T12:27:42;2.80;;;0.60;;
10535;SDS011;5316;49.538;8.352;2023-05-10T12:30:18;2.67;;;0.70;;
10535;SDS011;5316;49.538;8.352;2023-05-10T12:32:45;2.03;;;0.53;;
10535;SDS011;5316;49.538;8.352;2023-05-10T12:35:12;1.57;;;0.83;;
10535;SDS011;5316;49.538;8.352;2023-05-10T12:37:40;0.97;;;0.50;;
10535;SDS011;5316;49.538;8.352;2023-05-10T12:40:08;4.00;;;0.47;;
10535;SDS011;5316;49.538;8.352;2023-05-10T12:42:37;4.53;;;0.67;;
10535;SDS011;5316;49.538;8.352;2023-05-10T12:45:07;1.33;;;0.50;;
10535;SDS011;5316;49.538;8.352;2023-05-10T12:47:34;1.13;;;0.50;;
10535;SDS011;5316;49.538;8.352;2023-05-10T12:50:01;2.00;;;0.60;;
10535;SDS011;5316;49.538;8.352;2023-05-10T12:52:29;1.63;;;0.40;;
10535;SDS011;5316;49.538;8.352;2023-05-10T12:54:57;2.28;;;0.50;;
10535;SDS011;5316;49.538;8.352;2023-05-10T12:57:24;3.45;;;0.52;;
10535;SDS011;5316;49.538;8.352;2023-05-10T12:59:51;3.90;;;0.77;;
10535;SDS011;5316;49.538;8.352;2023-05-10T13:02:19;3.07;;;0.70;;
10535;SDS011;5316;49.538;8.352;2023-05-10T13:04:46;0.63;;;0.50;;
10535;SDS011;5316;49.538;8.352;2023-05-10T13:07:13;1.70;;;0.43;;
10535;SDS011;5316;49.538;8.352;2023-05-10T13:09:40;0.90;;;0.70;;
10535;SDS011;5316;49.538;8.352;2023-05-10T13:12:07;3.25;;;0.50;;
10535;SDS011;5316;49.538;8.352;2023-05-10T13:14:34;1.58;;;0.40;;
10535;SDS011;5316;49.538;8.352;2023-05-10T13:17:00;0.50;;;0.40;;
10535;SDS011;5316;49.538;8.352;2023-05-10T13:19:28;1.98;;;0.50;;
10535;SDS011;5316;49.538;8.352;2023-05-10T13:21:55;0.50;;;0.40;;
10535;SDS011;5316;49.538;8.352;2023-05-10T13:24:23;2.20;;;0.50;;
10535;SDS011;5316;49.538;8.352;2023-05-10T13:26:49;2.35;;;0.40;;
10535;SDS011;5316;49.538;8.352;2023-05-10T13:29:16;1.75;;;0.70;;
10535;SDS011;5316;49.538;8.352;2023-05-10T13:31:44;0.95;;;0.40;;
10535;SDS011;5316;49.538;8.352;2023-05-10T13:34:11;0.85;;;0.40;;
10535;SDS011;5316;49.538;8.352;2023-05-10T13:36:39;1.00;;;0.45;;
10535;SDS011;5316;49.538;8.352;2023-05-10T13:39:06;1.75;;;0.45;;
10535;SDS011;5316;49.538;8.352;2023-05-10T13:41:33;2.30;;;0.57;;
10535;SDS011;5316;49.538;8.352;2023-05-10T13:44:00;4.07;;;1.97;;
10535;SDS011;5316;49.538;8.352;2023-05-10T13:46:26;0.90;;;0.40;;
10535;SDS011;5316;49.538;8.352;2023-05-10T13:48:55;2.60;;;0.70;;
10535;SDS011;5316;49.538;8.352;2023-05-10T13:51:22;0.95;;;0.50;;
10535;SDS011;5316;49.538;8.352;2023-05-10T13:53:50;1.83;;;0.60;;
10535;SDS011;5316;49.538;8.352;2023-05-10T13:56:17;1.02;;;0.30;;
10535;SDS011;5316;49.538;8.352;2023-05-10T13:58:44;1.45;;;0.63;;
10535;SDS011;5316;49.538;8.352;2023-05-10T14:01:11;1.27;;;0.32;;
10535;SDS011;5316;49.538;8.352;2023-05-10T14:03:38;0.88;;;0.30;;
10535;SDS011;5316;49.538;8.352;2023-05-10T14:06:05;1.00;;;0.50;;
10535;SDS011;5316;49.538;8.352;2023-05-10T14:08:32;0.65;;;0.35;;
10535;SDS011;5316;49.538;8.352;2023-05-10T14:11:00;2.20;;;0.40;;
10535;SDS011;5316;49.538;8.352;2023-05-10T14:13:27;1.20;;;0.40;;
10535;SDS011;5316;49.538;8.352;2023-05-10T14:15:54;1.48;;;0.40;;
10535;SDS011;5316;49.538;8.352;2023-05-10T14:18:21;0.40;;;0.28;;
10535;SDS011;5316;49.538;8.352;2023-05-10T14:20:48;4.25;;;0.50;;
10535;SDS011;5316;49.538;8.352;2023-05-10T14:23:15;2.33;;;0.50;;
10535;SDS011;5316;49.538;8.352;2023-05-10T14:25:41;1.17;;;0.40;;
10535;SDS011;5316;49.538;8.352;2023-05-10T14:28:10;0.60;;;0.40;;
10535;SDS011;5316;49.538;8.352;2023-05-10T14:30:37;0.85;;;0.40;;
10535;SDS011;5316;49.538;8.352;2023-05-10T14:33:04;1.92;;;0.30;;
10535;SDS011;5316;49.538;8.352;2023-05-10T14:35:32;0.52;;;0.30;;
10535;SDS011;5316;49.538;8.352;2023-05-10T14:37:59;1.23;;;0.30;;
10535;SDS011;5316;49.538;8.352;2023-05-10T14:40:26;1.23;;;0.32;;
10535;SDS011;5316;49.538;8.352;2023-05-10T14:42:53;0.40;;;0.40;;
10535;SDS011;5316;49.538;8.352;2023-05-10T14:45:22;0.70;;;0.25;;
10535;SDS011;5316;49.538;8.352;2023-05-10T14:47:49;1.27;;;0.20;;
10535;SDS011;5316;49.538;8.352;2023-05-10T14:50:16;0.50;;;0.30;;
10535;SDS011;5316;49.538;8.352;2023-05-10T14:52:43;0.35;;;0.30;;
10535;SDS011;5316;49.538;8.352;2023-05-10T14:55:10;0.40;;;0.30;;
10535;SDS011;5316;49.538;8.352;2023-05-10T14:57:36;0.50;;;0.30;;
10535;SDS011;5316;49.538;8.352;2023-05-10T15:00:04;1.02;;;0.30;;
10535;SDS011;5316;49.538;8.352;2023-05-10T15:02:33;1.52;;;0.35;;
10535;SDS011;5316;49.538;8.352;2023-05-10T15:05:00;0.25;;;0.25;;
10535;SDS011;5316;49.538;8.352;2023-05-10T15:07:27;0.47;;;0.20;;
10535;SDS011;5316;49.538;8.352;2023-05-10T15:09:54;1.02;;;0.30;;
10535;SDS011;5316;49.538;8.352;2023-05-10T15:12:20;0.63;;;0.30;;
10535;SDS011;5316;49.538;8.352;2023-05-10T15:14:47;0.70;;;0.30;;
10535;SDS011;5316;49.538;8.352;2023-05-10T15:17:14;0.55;;;0.20;;